sensor_id;sensor_type;location;lat;lon;timestamp;P1;durP1;ratioP1;P2;durP2;ratioP2
31450;SDS011;18070;52.474;13.304;2023-12-20T00:01:37;26.25;;;24.77;;
31450;SDS011;18070;52.474;13.304;2023-12-20T00:04:03;19.50;;;18.30;;
31450;SDS011;18070;52.474;13.304;2023-12-20T00:06:30;29.02;;;27.35;;
31450;SDS011;18070;52.474;13.304;2023-12-20T00:08:56;25.77;;;24.25;;
31450;SDS011;18070;52.474;13.304;2023-12-20T00:11:25;31.45;;;29.42;;
31450;SDS011;18070;52.474;13.304;2023-12-20T00:13:51;30.75;;;28.90;;
31450;SDS011;18070;52.474;13.304;2023-12-20T00:16:18;27.98;;;26.15;;
31450;SDS011;18070;52.474;13.304;2023-12-20T00:18:44;35.65;;;32.78;;
31450;SDS011;18070;52.474;13.304;2023-12-20T00:21:10;32.83;;;31.02;;
31450;SDS011;18070;52.474;13.304;2023-12-20T00:23:36;26.50;;;25.00;;
31450;SDS011;18070;52.474;13.304;2023-12-20T00:26:02;26.75;;;25.05;;
31450;SDS011;18070;52.474;13.304;2023-12-20T00:28:28;22.05;;;20.70;;
31450;SDS011;18070;52.474;13.304;2023-12-20T00:30:54;25.48;;;24.05;;
31450;SDS011;18070;52.474;13.304;2023-12-20T00:33:20;26.27;;;24.77;;
31450;SDS011;18070;52.474;13.304;2023-12-20T00:35:47;26.83;;;25.30;;
31450;SDS011;18070;52.474;13.304;2023-12-20T00:38:13;21.83;;;20.50;;
31450;SDS011;18070;52.474;13.304;2023-12-20T00:40:39;24.27;;;22.88;;
31450;SDS011;18070;52.474;13.304;2023-12-20T00:43:05;24.70;;;23.20;;
31450;SDS011;18070;52.474;13.304;2023-12-20T00:45:31;27.10;;;25.58;;
31450;SDS011;18070;52.474;13.304;2023-12-20T00:47:57;30.83;;;28.95;;
31450;SDS011;18070;52.474;13.304;2023-12-20T00:50:24;29.27;;;27.65;;
31450;SDS011;18070;52.474;13.304;2023-12-20T00:52:50;30.13;;;28.40;;
31450;SDS011;18070;52.474;13.304;2023-12-20T00:55:16;31.05;;;29.27;;
31450;SDS011;18070;52.474;13.304;2023-12-20T00:57:42;28.42;;;26.70;;
31450;SDS011;18070;52.474;13.304;2023-12-20T01:00:08;26.13;;;24.60;;
31450;SDS011;18070;52.474;13.304;2023-12-20T01:02:35;25.08;;;23.67;;
31450;SDS011;18070;52.474;13.304;2023-12-20T01:05:01;42.63;;;40.22;;
31450;SDS011;18070;52.474;13.304;2023-12-20T01:07:27;35.42;;;33.25;;
31450;SDS011;18070;52.474;13.304;2023-12-20T01:09:53;24.42;;;23.02;;
31450;SDS011;18070;52.474;13.304;2023-12-20T01:12:20;23.15;;;21.75;;
31450;SDS011;18070;52.474;13.304;2023-12-20T01:14:46;25.95;;;24.42;;
31450;SDS011;18070;52.474;13.304;2023-12-20T01:17:12;23.52;;;22.13;;
31450;SDS011;18070;52.474;13.304;2023-12-20T01:19:38;20.40;;;19.15;;
31450;SDS011;18070;52.474;13.304;2023-12-20T01:22:04;28.80;;;27.10;;
31450;SDS011;18070;52.474;13.304;2023-12-20T01:24:30;24.15;;;22.73;;
31450;SDS011;18070;52.474;13.304;2023-12-20T01:26:56;25.25;;;23.50;;
31450;SDS011;18070;52.474;13.304;2023-12-20T01:29:22;23.77;;;22.38;;
31450;SDS011;18070;52.474;13.304;2023-12-20T01:31:48;20.73;;;19.38;;
31450;SDS011;18070;52.474;13.304;2023-12-20T01:34:15;24.52;;;22.73;;
31450;SDS011;18070;52.474;13.304;2023-12-20T01:36:41;23.80;;;22.25;;
31450;SDS011;18070;52.474;13.304;2023-12-20T01:39:07;26.83;;;25.20;;
31450;SDS011;18070;52.474;13.304;2023-12-20T01:41:33;20.25;;;18.85;;
31450;SDS011;18070;52.474;13.304;2023-12-20T01:43:59;23.45;;;22.00;;
31450;SDS011;18070;52.474;13.304;2023-12-20T01:46:25;23.25;;;21.75;;
31450;SDS011;18070;52.474;13.304;2023-12-20T01:48:51;21.92;;;20.63;;
31450;SDS011;18070;52.474;13.304;2023-12-20T01:51:17;21.13;;;19.85;;
31450;SDS011;18070;52.474;13.304;2023-12-20T01:53:44;20.83;;;19.60;;
31450;SDS011;18070;52.474;13.304;2023-12-20T01:56:10;21.20;;;19.90;;
31450;SDS011;18070;52.474;13.304;2023-12-20T01:58:38;21.80;;;20.35;;
31450;SDS011;18070;52.474;13.304;2023-12-20T02:01:04;19.88;;;18.63;;
31450;SDS011;18070;52.474;13.304;2023-12-20T02:03:30;16.60;;;15.57;;
31450;SDS011;18070;52.474;13.304;2023-12-20T02:05:57;18.70;;;17.45;;
31450;SDS011;18070;52.474;13.304;2023-12-20T02:08:23;20.30;;;18.90;;
31450;SDS011;18070;52.474;13.304;2023-12-20T02:10:49;19.42;;;18.23;;
31450;SDS011;18070;52.474;13.304;2023-12-20T02:13:15;17.50;;;16.42;;
31450;SDS011;18070;52.474;13.304;2023-12-20T02:15:41;22.00;;;20.40;;
31450;SDS011;18070;52.474;13.304;2023-12-20T02:18:08;27.70;;;25.85;;
31450;SDS011;18070;52.474;13.304;2023-12-20T02:20:34;20.52;;;19.25;;
31450;SDS011;18070;52.474;13.304;2023-12-20T02:23:00;21.60;;;20.25;;
31450;SDS011;18070;52.474;13.304;2023-12-20T02:25:26;21.75;;;20.33;;
31450;SDS011;18070;52.474;13.304;2023-12-20T02:27:52;23.13;;;21.55;;
31450;SDS011;18070;52.474;13.304;2023-12-20T02:30:18;21.40;;;19.90;;
31450;SDS011;18070;52.474;13.304;2023-12-20T02:32:44;18.98;;;17.67;;
31450;SDS011;18070;52.474;13.304;2023-12-20T02:35:10;35.45;;;33.25;;
31450;SDS011;18070;52.474;13.304;2023-12-20T02:37:36;19.48;;;18.17;;
31450;SDS011;18070;52.474;13.304;2023-12-20T02:40:03;20.63;;;19.13;;
31450;SDS011;18070;52.474;13.304;2023-12-20T02:42:29;31.38;;;29.48;;
31450;SDS011;18070;52.474;13.304;2023-12-20T02:44:55;20.25;;;18.90;;
31450;SDS011;18070;52.474;13.304;2023-12-20T02:47:21;20.27;;;18.80;;
31450;SDS011;18070;52.474;13.304;2023-12-20T02:49:47;26.13;;;24.30;;
31450;SDS011;18070;52.474;13.304;2023-12-20T02:52:14;22.17;;;20.50;;
31450;SDS011;18070;52.474;13.304;2023-12-20T02:54:40;20.70;;;19.30;;
31450;SDS011;18070;52.474;13.304;2023-12-20T02:57:06;24.05;;;22.52;;
31450;SDS011;18070;52.474;13.304;2023-12-20T02:59:32;23.08;;;21.52;;
31450;SDS011;18070;52.474;13.304;2023-12-20T03:01:58;30.90;;;28.58;;
31450;SDS011;18070;52.474;13.304;2023-12-20T03:04:24;36.05;;;33.90;;
31450;SDS011;18070;52.474;13.304;2023-12-20T03:06:50;45.67;;;42.33;;
31450;SDS011;18070;52.474;13.304;2023-12-20T03:09:16;37.40;;;34.70;;
31450;SDS011;18070;52.474;13.304;2023-12-20T03:11:42;37.15;;;34.60;;
31450;SDS011;18070;52.474;13.304;2023-12-20T03:14:08;50.08;;;46.90;;
31450;SDS011;18070;52.474;13.304;2023-12-20T03:16:34;59.15;;;55.50;;
31450;SDS011;18070;52.474;13.304;2023-12-20T03:19:00;59.03;;;55.40;;
31450;SDS011;18070;52.474;13.304;2023-12-20T03:21:26;64.07;;;60.10;;
31450;SDS011;18070;52.474;13.304;2023-12-20T03:23:52;65.80;;;61.97;;
31450;SDS011;18070;52.474;13.304;2023-12-20T03:26:18;66.22;;;62.35;;
31450;SDS011;18070;52.474;13.304;2023-12-20T03:28:45;61.58;;;57.42;;
31450;SDS011;18070;52.474;13.304;2023-12-20T03:31:11;57.95;;;54.45;;
31450;SDS011;18070;52.474;13.304;2023-12-20T03:33:37;61.22;;;57.20;;
31450;SDS011;18070;52.474;13.304;2023-12-20T03:36:03;57.60;;;54.13;;
31450;SDS011;18070;52.474;13.304;2023-12-20T03:38:29;59.88;;;55.97;;
31450;SDS011;18070;52.474;13.304;2023-12-20T03:40:55;64.03;;;60.40;;
31450;SDS011;18070;52.474;13.304;2023-12-20T03:43:21;66.32;;;62.28;;
31450;SDS011;18070;52.474;13.304;2023-12-20T03:45:47;60.88;;;56.80;;
31450;SDS011;18070;52.474;13.304;2023-12-20T03:48:13;51.92;;;48.78;;
31450;SDS011;18070;52.474;13.304;2023-12-20T03:50:39;49.08;;;46.17;;
31450;SDS011;18070;52.474;13.304;2023-12-20T03:53:05;41.40;;;38.63;;
31450;SDS011;18070;52.474;13.304;2023-12-20T03:55:31;48.22;;;45.05;;
31450;SDS011;18070;52.474;13.304;2023-12-20T03:57:57;43.80;;;40.80;;
31450;SDS011;18070;52.474;13.304;2023-12-20T04:00:23;39.85;;;37.38;;
31450;SDS011;18070;52.474;13.304;2023-12-20T04:02:49;34.58;;;31.98;;
31450;SDS011;18070;52.474;13.304;2023-12-20T04:05:15;35.40;;;33.28;;
31450;SDS011;18070;52.474;13.304;2023-12-20T04:07:41;41.13;;;38.08;;
31450;SDS011;18070;52.474;13.304;2023-12-20T04:10:08;38.15;;;35.47;;
31450;SDS011;18070;52.474;13.304;2023-12-20T04:12:34;46.00;;;42.78;;
31450;SDS011;18070;52.474;13.304;2023-12-20T04:15:00;41.45;;;38.20;;
31450;SDS011;18070;52.474;13.304;2023-12-20T04:17:26;46.92;;;43.47;;
31450;SDS011;18070;52.474;13.304;2023-12-20T04:19:52;41.53;;;38.38;;
31450;SDS011;18070;52.474;13.304;2023-12-20T04:22:18;44.72;;;41.35;;
31450;SDS011;18070;52.474;13.304;2023-12-20T04:24:44;48.70;;;45.00;;
31450;SDS011;18070;52.474;13.304;2023-12-20T04:27:11;41.97;;;39.33;;
31450;SDS011;18070;52.474;13.304;2023-12-20T04:29:37;47.90;;;44.05;;
31450;SDS011;18070;52.474;13.304;2023-12-20T04:32:03;50.22;;;46.45;;
31450;SDS011;18070;52.474;13.304;2023-12-20T04:34:29;48.70;;;45.38;;
31450;SDS011;18070;52.474;13.304;2023-12-20T04:36:55;50.83;;;47.85;;
31450;SDS011;18070;52.474;13.304;2023-12-20T04:39:21;46.15;;;43.00;;
31450;SDS011;18070;52.474;13.304;2023-12-20T04:41:47;45.00;;;42.17;;
31450;SDS011;18070;52.474;13.304;2023-12-20T04:44:15;45.13;;;42.20;;
31450;SDS011;18070;52.474;13.304;2023-12-20T04:46:41;45.13;;;40.80;;
31450;SDS011;18070;52.474;13.304;2023-12-20T04:49:07;38.50;;;36.08;;
31450;SDS011;18070;52.474;13.304;2023-12-20T04:51:33;41.95;;;38.72;;
31450;SDS011;18070;52.474;13.304;2023-12-20T04:54:00;43.83;;;40.47;;
31450;SDS011;18070;52.474;13.304;2023-12-20T04:56:26;37.75;;;34.55;;
31450;SDS011;18070;52.474;13.304;2023-12-20T04:58:52;42.15;;;38.95;;
31450;SDS011;18070;52.474;13.304;2023-12-20T05:01:18;39.78;;;36.53;;
31450;SDS011;18070;52.474;13.304;2023-12-20T05:03:44;38.15;;;34.72;;
31450;SDS011;18070;52.474;13.304;2023-12-20T05:06:10;41.13;;;37.90;;
31450;SDS011;18070;52.474;13.304;2023-12-20T05:08:36;41.47;;;38.35;;
31450;SDS011;18070;52.474;13.304;2023-12-20T05:11:02;54.40;;;50.53;;
31450;SDS011;18070;52.474;13.304;2023-12-20T05:13:28;52.80;;;49.17;;
31450;SDS011;18070;52.474;13.304;2023-12-20T05:15:54;44.88;;;41.25;;
31450;SDS011;18070;52.474;13.304;2023-12-20T05:18:21;41.03;;;37.17;;
31450;SDS011;18070;52.474;13.304;2023-12-20T05:20:48;36.90;;;33.55;;
31450;SDS011;18070;52.474;13.304;2023-12-20T05:23:14;38.50;;;35.50;;
31450;SDS011;18070;52.474;13.304;2023-12-20T05:25:40;43.40;;;39.45;;
31450;SDS011;18070;52.474;13.304;2023-12-20T05:28:06;35.42;;;32.25;;
31450;SDS011;18070;52.474;13.304;2023-12-20T05:30:32;39.92;;;36.85;;
31450;SDS011;18070;52.474;13.304;2023-12-20T05:32:58;35.95;;;32.95;;
31450;SDS011;18070;52.474;13.304;2023-12-20T05:35:24;37.53;;;33.78;;
31450;SDS011;18070;52.474;13.304;2023-12-20T05:37:50;41.05;;;37.05;;
31450;SDS011;18070;52.474;13.304;2023-12-20T05:40:16;33.38;;;30.63;;
31450;SDS011;18070;52.474;13.304;2023-12-20T05:42:42;35.40;;;32.00;;
31450;SDS011;18070;52.474;13.304;2023-12-20T05:45:09;36.22;;;33.22;;
31450;SDS011;18070;52.474;13.304;2023-12-20T05:47:35;26.45;;;24.25;;
31450;SDS011;18070;52.474;13.304;2023-12-20T05:50:02;27.23;;;19.25;;
31450;SDS011;18070;52.474;13.304;2023-12-20T05:52:29;22.48;;;20.13;;
31450;SDS011;18070;52.474;13.304;2023-12-20T05:54:56;33.33;;;30.45;;
31450;SDS011;18070;52.474;13.304;2023-12-20T05:57:26;38.55;;;35.05;;
31450;SDS011;18070;52.474;13.304;2023-12-20T05:59:52;37.28;;;33.55;;
31450;SDS011;18070;52.474;13.304;2023-12-20T06:02:18;40.80;;;37.10;;
31450;SDS011;18070;52.474;13.304;2023-12-20T06:04:44;41.80;;;37.83;;
31450;SDS011;18070;52.474;13.304;2023-12-20T06:07:13;50.90;;;47.10;;
31450;SDS011;18070;52.474;13.304;2023-12-20T06:09:39;41.10;;;38.13;;
31450;SDS011;18070;52.474;13.304;2023-12-20T06:12:05;39.22;;;35.90;;
31450;SDS011;18070;52.474;13.304;2023-12-20T06:14:31;40.45;;;37.88;;
31450;SDS011;18070;52.474;13.304;2023-12-20T06:16:57;34.78;;;32.22;;
31450;SDS011;18070;52.474;13.304;2023-12-20T06:19:23;36.65;;;33.38;;
31450;SDS011;18070;52.474;13.304;2023-12-20T06:21:50;33.47;;;30.45;;
31450;SDS011;18070;52.474;13.304;2023-12-20T06:24:16;32.85;;;30.15;;
31450;SDS011;18070;52.474;13.304;2023-12-20T06:26:42;36.90;;;33.70;;
31450;SDS011;18070;52.474;13.304;2023-12-20T06:29:08;46.78;;;42.97;;
31450;SDS011;18070;52.474;13.304;2023-12-20T06:31:34;33.42;;;30.48;;
31450;SDS011;18070;52.474;13.304;2023-12-20T06:34:00;46.00;;;42.53;;
31450;SDS011;18070;52.474;13.304;2023-12-20T06:36:26;49.85;;;45.80;;
31450;SDS011;18070;52.474;13.304;2023-12-20T06:38:52;52.05;;;48.28;;
31450;SDS011;18070;52.474;13.304;2023-12-20T06:41:18;55.92;;;51.78;;
31450;SDS011;18070;52.474;13.304;2023-12-20T06:43:45;47.30;;;44.60;;
31450;SDS011;18070;52.474;13.304;2023-12-20T06:46:11;58.90;;;55.05;;
31450;SDS011;18070;52.474;13.304;2023-12-20T06:48:38;53.42;;;49.22;;
31450;SDS011;18070;52.474;13.304;2023-12-20T06:51:05;53.47;;;49.78;;
31450;SDS011;18070;52.474;13.304;2023-12-20T06:53:31;46.80;;;42.45;;
31450;SDS011;18070;52.474;13.304;2023-12-20T06:55:57;44.92;;;41.33;;
31450;SDS011;18070;52.474;13.304;2023-12-20T06:58:23;41.03;;;37.97;;
31450;SDS011;18070;52.474;13.304;2023-12-20T07:00:49;33.63;;;31.05;;
31450;SDS011;18070;52.474;13.304;2023-12-20T07:03:16;32.45;;;30.10;;
31450;SDS011;18070;52.474;13.304;2023-12-20T07:05:42;35.78;;;32.42;;
31450;SDS011;18070;52.474;13.304;2023-12-20T07:08:08;39.42;;;35.83;;
31450;SDS011;18070;52.474;13.304;2023-12-20T07:10:35;35.92;;;33.53;;
31450;SDS011;18070;52.474;13.304;2023-12-20T07:13:01;42.08;;;38.35;;
31450;SDS011;18070;52.474;13.304;2023-12-20T07:15:28;39.95;;;37.28;;
31450;SDS011;18070;52.474;13.304;2023-12-20T07:17:54;25.58;;;23.20;;
31450;SDS011;18070;52.474;13.304;2023-12-20T07:20:20;52.08;;;47.80;;
31450;SDS011;18070;52.474;13.304;2023-12-20T07:22:46;54.13;;;49.75;;
31450;SDS011;18070;52.474;13.304;2023-12-20T07:25:12;44.63;;;40.10;;
31450;SDS011;18070;52.474;13.304;2023-12-20T07:27:38;46.30;;;42.78;;
31450;SDS011;18070;52.474;13.304;2023-12-20T07:30:05;56.83;;;52.45;;
31450;SDS011;18070;52.474;13.304;2023-12-20T07:32:31;53.42;;;49.30;;
31450;SDS011;18070;52.474;13.304;2023-12-20T07:34:57;46.97;;;43.53;;
31450;SDS011;18070;52.474;13.304;2023-12-20T07:37:23;47.35;;;43.75;;
31450;SDS011;18070;52.474;13.304;2023-12-20T07:39:49;43.50;;;39.88;;
31450;SDS011;18070;52.474;13.304;2023-12-20T07:42:15;51.17;;;47.25;;
31450;SDS011;18070;52.474;13.304;2023-12-20T07:44:41;35.60;;;32.67;;
31450;SDS011;18070;52.474;13.304;2023-12-20T07:47:07;44.30;;;41.35;;
31450;SDS011;18070;52.474;13.304;2023-12-20T07:49:33;36.20;;;33.67;;
31450;SDS011;18070;52.474;13.304;2023-12-20T07:51:59;40.83;;;37.70;;
31450;SDS011;18070;52.474;13.304;2023-12-20T07:54:26;33.28;;;29.85;;
31450;SDS011;18070;52.474;13.304;2023-12-20T07:56:52;37.90;;;34.65;;
31450;SDS011;18070;52.474;13.304;2023-12-20T07:59:18;29.80;;;26.00;;
31450;SDS011;18070;52.474;13.304;2023-12-20T08:01:44;34.95;;;32.03;;
31450;SDS011;18070;52.474;13.304;2023-12-20T08:04:10;37.05;;;34.17;;
31450;SDS011;18070;52.474;13.304;2023-12-20T08:06:36;28.00;;;25.52;;
31450;SDS011;18070;52.474;13.304;2023-12-20T08:09:02;33.85;;;26.50;;
31450;SDS011;18070;52.474;13.304;2023-12-20T08:11:29;35.85;;;32.40;;
31450;SDS011;18070;52.474;13.304;2023-12-20T08:13:55;36.05;;;33.67;;
31450;SDS011;18070;52.474;13.304;2023-12-20T08:16:21;45.65;;;42.10;;
31450;SDS011;18070;52.474;13.304;2023-12-20T08:18:47;51.22;;;47.05;;
31450;SDS011;18070;52.474;13.304;2023-12-20T08:21:13;32.33;;;29.58;;
31450;SDS011;18070;52.474;13.304;2023-12-20T08:23:39;34.42;;;31.27;;
31450;SDS011;18070;52.474;13.304;2023-12-20T08:26:06;28.05;;;25.42;;
31450;SDS011;18070;52.474;13.304;2023-12-20T08:28:32;24.10;;;21.60;;
31450;SDS011;18070;52.474;13.304;2023-12-20T08:30:58;26.27;;;23.45;;
31450;SDS011;18070;52.474;13.304;2023-12-20T08:33:24;22.17;;;19.92;;
31450;SDS011;18070;52.474;13.304;2023-12-20T08:35:50;29.60;;;23.45;;
31450;SDS011;18070;52.474;13.304;2023-12-20T08:38:16;24.23;;;21.83;;
31450;SDS011;18070;52.474;13.304;2023-12-20T08:40:43;24.63;;;22.35;;
31450;SDS011;18070;52.474;13.304;2023-12-20T08:43:09;29.75;;;27.60;;
31450;SDS011;18070;52.474;13.304;2023-12-20T08:45:35;23.45;;;15.07;;
31450;SDS011;18070;52.474;13.304;2023-12-20T08:48:01;25.10;;;18.15;;
31450;SDS011;18070;52.474;13.304;2023-12-20T08:50:28;19.50;;;17.70;;
31450;SDS011;18070;52.474;13.304;2023-12-20T08:52:54;19.83;;;17.48;;
31450;SDS011;18070;52.474;13.304;2023-12-20T08:55:20;20.05;;;13.48;;
31450;SDS011;18070;52.474;13.304;2023-12-20T08:57:46;25.80;;;18.58;;
31450;SDS011;18070;52.474;13.304;2023-12-20T09:00:13;16.60;;;14.25;;
31450;SDS011;18070;52.474;13.304;2023-12-20T09:02:39;21.88;;;18.05;;
31450;SDS011;18070;52.474;13.304;2023-12-20T09:05:05;23.60;;;21.23;;
31450;SDS011;18070;52.474;13.304;2023-12-20T09:07:31;22.40;;;20.08;;
31450;SDS011;18070;52.474;13.304;2023-12-20T09:09:57;20.85;;;16.30;;
31450;SDS011;18070;52.474;13.304;2023-12-20T09:12:24;18.25;;;10.82;;
31450;SDS011;18070;52.474;13.304;2023-12-20T09:14:50;21.50;;;13.15;;
31450;SDS011;18070;52.474;13.304;2023-12-20T09:17:17;17.25;;;11.98;;
31450;SDS011;18070;52.474;13.304;2023-12-20T09:19:44;22.73;;;12.25;;
31450;SDS011;18070;52.474;13.304;2023-12-20T09:22:10;17.02;;;11.45;;
31450;SDS011;18070;52.474;13.304;2023-12-20T09:24:36;16.15;;;11.43;;
31450;SDS011;18070;52.474;13.304;2023-12-20T09:27:03;19.38;;;12.88;;
31450;SDS011;18070;52.474;13.304;2023-12-20T09:29:30;19.30;;;12.57;;
31450;SDS011;18070;52.474;13.304;2023-12-20T09:31:56;14.30;;;12.57;;
31450;SDS011;18070;52.474;13.304;2023-12-20T09:34:22;14.30;;;12.82;;
31450;SDS011;18070;52.474;13.304;2023-12-20T09:36:49;22.65;;;14.38;;
31450;SDS011;18070;52.474;13.304;2023-12-20T09:39:16;19.42;;;12.68;;
31450;SDS011;18070;52.474;13.304;2023-12-20T09:42:06;21.60;;;12.43;;
31450;SDS011;18070;52.474;13.304;2023-12-20T09:44:33;17.90;;;11.13;;
31450;SDS011;18070;52.474;13.304;2023-12-20T09:47:01;16.90;;;9.88;;
31450;SDS011;18070;52.474;13.304;2023-12-20T09:49:28;17.48;;;10.98;;
31450;SDS011;18070;52.474;13.304;2023-12-20T09:51:54;21.58;;;16.30;;
31450;SDS011;18070;52.474;13.304;2023-12-20T09:54:21;23.85;;;13.75;;
31450;SDS011;18070;52.474;13.304;2023-12-20T09:56:48;17.25;;;12.05;;
31450;SDS011;18070;52.474;13.304;2023-12-20T09:59:14;21.08;;;10.07;;
31450;SDS011;18070;52.474;13.304;2023-12-20T10:01:40;21.77;;;10.25;;
31450;SDS011;18070;52.474;13.304;2023-12-20T10:04:07;20.90;;;14.00;;
31450;SDS011;18070;52.474;13.304;2023-12-20T10:06:35;18.55;;;10.60;;
31450;SDS011;18070;52.474;13.304;2023-12-20T10:09:01;17.95;;;9.52;;
31450;SDS011;18070;52.474;13.304;2023-12-20T10:11:29;24.80;;;11.98;;
31450;SDS011;18070;52.474;13.304;2023-12-20T10:14:01;19.25;;;10.60;;
31450;SDS011;18070;52.474;13.304;2023-12-20T10:16:27;17.13;;;10.43;;
31450;SDS011;18070;52.474;13.304;2023-12-20T10:18:53;18.58;;;11.23;;
31450;SDS011;18070;52.474;13.304;2023-12-20T10:21:20;19.15;;;13.90;;
31450;SDS011;18070;52.474;13.304;2023-12-20T10:23:46;24.55;;;12.73;;
31450;SDS011;18070;52.474;13.304;2023-12-20T10:26:20;23.52;;;14.05;;
31450;SDS011;18070;52.474;13.304;2023-12-20T10:31:25;18.63;;;7.60;;
31450;SDS011;18070;52.474;13.304;2023-12-20T10:33:52;17.70;;;12.43;;
31450;SDS011;18070;52.474;13.304;2023-12-20T10:36:18;16.08;;;13.95;;
31450;SDS011;18070;52.474;13.304;2023-12-20T10:38:44;28.33;;;14.45;;
31450;SDS011;18070;52.474;13.304;2023-12-20T10:41:12;24.95;;;14.18;;
31450;SDS011;18070;52.474;13.304;2023-12-20T10:43:42;24.45;;;12.07;;
31450;SDS011;18070;52.474;13.304;2023-12-20T10:46:08;20.77;;;9.48;;
31450;SDS011;18070;52.474;13.304;2023-12-20T10:48:34;21.88;;;9.15;;
31450;SDS011;18070;52.474;13.304;2023-12-20T10:51:00;22.25;;;14.60;;
31450;SDS011;18070;52.474;13.304;2023-12-20T10:53:26;18.33;;;9.13;;
31450;SDS011;18070;52.474;13.304;2023-12-20T10:55:55;17.60;;;9.07;;
31450;SDS011;18070;52.474;13.304;2023-12-20T10:58:22;25.15;;;10.48;;
31450;SDS011;18070;52.474;13.304;2023-12-20T11:00:49;20.48;;;8.07;;
31450;SDS011;18070;52.474;13.304;2023-12-20T11:03:17;17.50;;;9.48;;
31450;SDS011;18070;52.474;13.304;2023-12-20T11:08:25;20.17;;;8.98;;
31450;SDS011;18070;52.474;13.304;2023-12-20T11:13:34;21.15;;;13.30;;
31450;SDS011;18070;52.474;13.304;2023-12-20T11:16:02;20.63;;;11.30;;
31450;SDS011;18070;52.474;13.304;2023-12-20T11:18:31;13.95;;;11.88;;
31450;SDS011;18070;52.474;13.304;2023-12-20T11:21:01;18.73;;;11.68;;
31450;SDS011;18070;52.474;13.304;2023-12-20T11:23:29;18.25;;;11.27;;
31450;SDS011;18070;52.474;13.304;2023-12-20T11:25:56;28.83;;;13.50;;
31450;SDS011;18070;52.474;13.304;2023-12-20T11:28:25;24.00;;;12.30;;
31450;SDS011;18070;52.474;13.304;2023-12-20T11:33:21;18.02;;;10.23;;
31450;SDS011;18070;52.474;13.304;2023-12-20T11:35:47;22.90;;;17.85;;
31450;SDS011;18070;52.474;13.304;2023-12-20T11:38:13;26.60;;;9.63;;
31450;SDS011;18070;52.474;13.304;2023-12-20T11:40:41;18.05;;;14.52;;
31450;SDS011;18070;52.474;13.304;2023-12-20T11:43:07;24.88;;;12.32;;
31450;SDS011;18070;52.474;13.304;2023-12-20T11:45:33;16.23;;;11.07;;
31450;SDS011;18070;52.474;13.304;2023-12-20T11:48:00;26.42;;;11.43;;
31450;SDS011;18070;52.474;13.304;2023-12-20T11:50:27;21.98;;;9.23;;
31450;SDS011;18070;52.474;13.304;2023-12-20T11:52:54;23.73;;;10.52;;
31450;SDS011;18070;52.474;13.304;2023-12-20T11:55:21;16.95;;;9.70;;
31450;SDS011;18070;52.474;13.304;2023-12-20T11:57:48;14.65;;;9.73;;
31450;SDS011;18070;52.474;13.304;2023-12-20T12:00:15;20.80;;;15.10;;
31450;SDS011;18070;52.474;13.304;2023-12-20T12:02:41;23.10;;;13.85;;
31450;SDS011;18070;52.474;13.304;2023-12-20T12:05:08;20.23;;;13.10;;
31450;SDS011;18070;52.474;13.304;2023-12-20T12:07:34;18.48;;;8.70;;
31450;SDS011;18070;52.474;13.304;2023-12-20T12:10:01;14.95;;;10.60;;
31450;SDS011;18070;52.474;13.304;2023-12-20T12:12:28;23.77;;;21.55;;
31450;SDS011;18070;52.474;13.304;2023-12-20T12:14:55;18.17;;;8.80;;
31450;SDS011;18070;52.474;13.304;2023-12-20T12:17:22;14.27;;;7.88;;
31450;SDS011;18070;52.474;13.304;2023-12-20T12:19:48;22.08;;;12.18;;
31450;SDS011;18070;52.474;13.304;2023-12-20T12:22:14;14.82;;;9.55;;
31450;SDS011;18070;52.474;13.304;2023-12-20T12:24:44;19.50;;;14.65;;
31450;SDS011;18070;52.474;13.304;2023-12-20T12:27:10;15.73;;;9.07;;
31450;SDS011;18070;52.474;13.304;2023-12-20T12:29:37;18.13;;;8.57;;
31450;SDS011;18070;52.474;13.304;2023-12-20T12:32:07;15.85;;;10.05;;
31450;SDS011;18070;52.474;13.304;2023-12-20T12:34:33;16.42;;;13.57;;
31450;SDS011;18070;52.474;13.304;2023-12-20T12:37:00;11.73;;;10.48;;
31450;SDS011;18070;52.474;13.304;2023-12-20T12:39:26;22.30;;;20.10;;
31450;SDS011;18070;52.474;13.304;2023-12-20T12:41:52;32.92;;;29.63;;
31450;SDS011;18070;52.474;13.304;2023-12-20T12:44:19;30.98;;;28.15;;
31450;SDS011;18070;52.474;13.304;2023-12-20T12:46:47;23.67;;;21.25;;
31450;SDS011;18070;52.474;13.304;2023-12-20T12:49:18;28.92;;;26.27;;
31450;SDS011;18070;52.474;13.304;2023-12-20T12:51:44;34.28;;;31.70;;
31450;SDS011;18070;52.474;13.304;2023-12-20T12:54:10;49.85;;;45.88;;
31450;SDS011;18070;52.474;13.304;2023-12-20T12:56:38;44.17;;;40.63;;
31450;SDS011;18070;52.474;13.304;2023-12-20T12:59:04;31.02;;;27.58;;
31450;SDS011;18070;52.474;13.304;2023-12-20T13:01:30;28.25;;;26.05;;
31450;SDS011;18070;52.474;13.304;2023-12-20T13:03:56;25.70;;;22.83;;
31450;SDS011;18070;52.474;13.304;2023-12-20T13:06:23;24.77;;;21.02;;
31450;SDS011;18070;52.474;13.304;2023-12-20T13:08:49;25.48;;;18.50;;
31450;SDS011;18070;52.474;13.304;2023-12-20T13:11:15;24.08;;;21.73;;
31450;SDS011;18070;52.474;13.304;2023-12-20T13:13:41;34.75;;;31.52;;
31450;SDS011;18070;52.474;13.304;2023-12-20T13:16:07;26.27;;;23.25;;
31450;SDS011;18070;52.474;13.304;2023-12-20T13:18:33;24.00;;;21.23;;
31450;SDS011;18070;52.474;13.304;2023-12-20T13:20:59;31.50;;;28.50;;
31450;SDS011;18070;52.474;13.304;2023-12-20T13:23:25;28.98;;;25.88;;
31450;SDS011;18070;52.474;13.304;2023-12-20T13:25:51;31.95;;;27.35;;
31450;SDS011;18070;52.474;13.304;2023-12-20T13:28:17;28.05;;;25.90;;
31450;SDS011;18070;52.474;13.304;2023-12-20T13:30:43;34.42;;;31.58;;
31450;SDS011;18070;52.474;13.304;2023-12-20T13:33:10;20.20;;;18.27;;
31450;SDS011;18070;52.474;13.304;2023-12-20T13:35:37;20.48;;;18.58;;
31450;SDS011;18070;52.474;13.304;2023-12-20T13:38:04;14.63;;;13.75;;
31450;SDS011;18070;52.474;13.304;2023-12-20T13:40:30;15.10;;;14.07;;
31450;SDS011;18070;52.474;13.304;2023-12-20T13:42:56;12.75;;;11.85;;
31450;SDS011;18070;52.474;13.304;2023-12-20T13:45:22;17.90;;;16.35;;
31450;SDS011;18070;52.474;13.304;2023-12-20T13:47:50;13.25;;;12.20;;
31450;SDS011;18070;52.474;13.304;2023-12-20T13:50:16;13.57;;;9.70;;
31450;SDS011;18070;52.474;13.304;2023-12-20T13:52:42;11.43;;;10.55;;
31450;SDS011;18070;52.474;13.304;2023-12-20T13:55:08;15.63;;;11.18;;
31450;SDS011;18070;52.474;13.304;2023-12-20T13:57:35;11.07;;;9.98;;
31450;SDS011;18070;52.474;13.304;2023-12-20T14:00:03;10.82;;;9.45;;
31450;SDS011;18070;52.474;13.304;2023-12-20T14:02:29;12.18;;;11.38;;
31450;SDS011;18070;52.474;13.304;2023-12-20T14:04:55;11.60;;;10.82;;
31450;SDS011;18070;52.474;13.304;2023-12-20T14:07:21;9.95;;;9.32;;
31450;SDS011;18070;52.474;13.304;2023-12-20T14:09:47;9.57;;;8.77;;
31450;SDS011;18070;52.474;13.304;2023-12-20T14:12:14;9.27;;;8.57;;
31450;SDS011;18070;52.474;13.304;2023-12-20T14:14:40;10.20;;;9.60;;
31450;SDS011;18070;52.474;13.304;2023-12-20T14:17:06;9.63;;;8.85;;